sensor_id;sensor_type;location;lat;lon;timestamp;P1;durP1;ratioP1;P2;durP2;ratioP2
13057;SDS011;6595;49.578;11.012;2023-11-21T00:00:24;3.3;;;1.7;;
13057;SDS011;6595;49.578;11.012;2023-11-21T00:02:23;3.1;;;1.7;;
13057;SDS011;6595;49.578;11.012;2023-11-21T00:04:23;3.9;;;1.6;;
13057;SDS011;6595;49.578;11.012;2023-11-21T00:06:24;4.1;;;1.8;;
13057;SDS011;6595;49.578;11.012;2023-11-21T00:08:23;4.1;;;1.8;;
13057;SDS011;6595;49.578;11.012;2023-11-21T00:10:23;3.6;;;1.8;;
13057;SDS011;6595;49.578;11.012;2023-11-21T00:12:23;5.4;;;2.0;;
13057;SDS011;6595;49.578;11.012;2023-11-21T00:14:24;3.7;;;1.6;;
13057;SDS011;6595;49.578;11.012;2023-11-21T00:16:23;2.9;;;1.5;;
13057;SDS011;6595;49.578;11.012;2023-11-21T00:18:23;2.9;;;1.5;;
13057;SDS011;6595;49.578;11.012;2023-11-21T00:20:24;4.4;;;1.6;;
13057;SDS011;6595;49.578;11.012;2023-11-21T00:22:23;4.4;;;1.6;;
13057;SDS011;6595;49.578;11.012;2023-11-21T00:24:23;2.9;;;1.4;;
13057;SDS011;6595;49.578;11.012;2023-11-21T00:26:24;2.9;;;1.4;;
13057;SDS011;6595;49.578;11.012;2023-11-21T00:28:24;2.6;;;1.7;;
13057;SDS011;6595;49.578;11.012;2023-11-21T00:30:23;2.9;;;1.4;;
13057;SDS011;6595;49.578;11.012;2023-11-21T00:32:23;2.8;;;1.7;;
13057;SDS011;6595;49.578;11.012;2023-11-21T00:34:23;2.8;;;1.7;;
13057;SDS011;6595;49.578;11.012;2023-11-21T00:36:24;4.2;;;1.7;;
13057;SDS011;6595;49.578;11.012;2023-11-21T00:38:23;4.4;;;1.6;;
13057;SDS011;6595;49.578;11.012;2023-11-21T00:40:23;2.5;;;1.4;;
13057;SDS011;6595;49.578;11.012;2023-11-21T00:42:24;4.2;;;1.6;;
13057;SDS011;6595;49.578;11.012;2023-11-21T00:44:23;4.2;;;1.6;;
13057;SDS011;6595;49.578;11.012;2023-11-21T00:46:23;3.5;;;1.7;;
13057;SDS011;6595;49.578;11.012;2023-11-21T00:48:24;2.4;;;1.7;;
13057;SDS011;6595;49.578;11.012;2023-11-21T00:50:23;6.0;;;1.9;;
13057;SDS011;6595;49.578;11.012;2023-11-21T00:52:23;3.7;;;1.6;;
13057;SDS011;6595;49.578;11.012;2023-11-21T00:54:23;3.7;;;1.6;;
13057;SDS011;6595;49.578;11.012;2023-11-21T00:56:23;2.5;;;1.5;;
13057;SDS011;6595;49.578;11.012;2023-11-21T00:58:24;3.7;;;1.6;;
13057;SDS011;6595;49.578;11.012;2023-11-21T01:00:23;4.1;;;1.7;;
13057;SDS011;6595;49.578;11.012;2023-11-21T01:02:23;4.1;;;1.6;;
13057;SDS011;6595;49.578;11.012;2023-11-21T01:04:23;4.1;;;1.6;;
13057;SDS011;6595;49.578;11.012;2023-11-21T01:06:24;2.6;;;1.4;;
13057;SDS011;6595;49.578;11.012;2023-11-21T01:08:23;4.1;;;1.6;;
13057;SDS011;6595;49.578;11.012;2023-11-21T01:10:23;2.3;;;1.4;;
13057;SDS011;6595;49.578;11.012;2023-11-21T01:12:24;3.0;;;1.7;;
13057;SDS011;6595;49.578;11.012;2023-11-21T01:14:23;3.0;;;1.7;;
13057;SDS011;6595;49.578;11.012;2023-11-21T01:16:24;4.1;;;1.6;;
13057;SDS011;6595;49.578;11.012;2023-11-21T01:18:24;3.1;;;1.6;;
13057;SDS011;6595;49.578;11.012;2023-11-21T01:20:23;3.6;;;1.8;;
13057;SDS011;6595;49.578;11.012;2023-11-21T01:22:24;3.6;;;1.6;;
13057;SDS011;6595;49.578;11.012;2023-11-21T01:24:24;3.6;;;1.6;;
13057;SDS011;6595;49.578;11.012;2023-11-21T01:26:23;5.7;;;1.8;;
13057;SDS011;6595;49.578;11.012;2023-11-21T01:28:23;3.0;;;1.7;;
13057;SDS011;6595;49.578;11.012;2023-11-21T01:30:24;2.7;;;1.7;;
13057;SDS011;6595;49.578;11.012;2023-11-21T01:32:23;2.7;;;1.7;;
13057;SDS011;6595;49.578;11.012;2023-11-21T01:34:23;2.4;;;1.7;;
13057;SDS011;6595;49.578;11.012;2023-11-21T01:36:23;5.3;;;1.8;;
13057;SDS011;6595;49.578;11.012;2023-11-21T01:38:24;3.2;;;1.8;;
13057;SDS011;6595;49.578;11.012;2023-11-21T01:40:23;4.2;;;1.7;;
13057;SDS011;6595;49.578;11.012;2023-11-21T01:42:23;4.2;;;1.7;;
13057;SDS011;6595;49.578;11.012;2023-11-21T01:44:23;4.4;;;1.9;;
13057;SDS011;6595;49.578;11.012;2023-11-21T01:46:23;3.7;;;1.9;;
13057;SDS011;6595;49.578;11.012;2023-11-21T01:48:23;3.9;;;1.8;;
13057;SDS011;6595;49.578;11.012;2023-11-21T01:50:23;3.6;;;1.9;;
13057;SDS011;6595;49.578;11.012;2023-11-21T01:52:23;3.6;;;1.9;;
13057;SDS011;6595;49.578;11.012;2023-11-21T01:54:23;4.9;;;2.0;;
13057;SDS011;6595;49.578;11.012;2023-11-21T01:56:23;4.0;;;2.2;;
13057;SDS011;6595;49.578;11.012;2023-11-21T01:58:23;3.2;;;2.1;;
13057;SDS011;6595;49.578;11.012;2023-11-21T02:00:23;3.2;;;2.1;;
13057;SDS011;6595;49.578;11.012;2023-11-21T02:02:23;5.8;;;2.2;;
13057;SDS011;6595;49.578;11.012;2023-11-21T02:04:23;5.4;;;2.3;;
13057;SDS011;6595;49.578;11.012;2023-11-21T02:06:24;3.9;;;2.2;;
13057;SDS011;6595;49.578;11.012;2023-11-21T02:08:23;3.9;;;2.2;;
13057;SDS011;6595;49.578;11.012;2023-11-21T02:10:23;5.0;;;2.2;;
13057;SDS011;6595;49.578;11.012;2023-11-21T02:12:24;5.0;;;2.2;;
13057;SDS011;6595;49.578;11.012;2023-11-21T02:14:23;5.8;;;2.3;;
13057;SDS011;6595;49.578;11.012;2023-11-21T02:16:23;3.7;;;2.3;;
13057;SDS011;6595;49.578;11.012;2023-11-21T02:18:24;6.0;;;2.2;;
13057;SDS011;6595;49.578;11.012;2023-11-21T02:20:23;5.5;;;2.2;;
13057;SDS011;6595;49.578;11.012;2023-11-21T02:22:23;5.5;;;2.2;;
13057;SDS011;6595;49.578;11.012;2023-11-21T02:24:24;3.9;;;2.1;;
13057;SDS011;6595;49.578;11.012;2023-11-21T02:26:23;3.9;;;2.1;;
13057;SDS011;6595;49.578;11.012;2023-11-21T02:28:23;4.0;;;2.3;;
13057;SDS011;6595;49.578;11.012;2023-11-21T02:30:24;4.0;;;2.3;;
13057;SDS011;6595;49.578;11.012;2023-11-21T02:32:23;4.9;;;2.5;;
13057;SDS011;6595;49.578;11.012;2023-11-21T02:34:23;4.0;;;2.1;;
13057;SDS011;6595;49.578;11.012;2023-11-21T02:36:23;3.3;;;2.0;;
13057;SDS011;6595;49.578;11.012;2023-11-21T02:38:24;4.1;;;2.4;;
13057;SDS011;6595;49.578;11.012;2023-11-21T02:40:23;3.6;;;2.2;;
13057;SDS011;6595;49.578;11.012;2023-11-21T02:42:24;3.6;;;2.2;;
13057;SDS011;6595;49.578;11.012;2023-11-21T02:44:23;3.9;;;2.1;;
13057;SDS011;6595;49.578;11.012;2023-11-21T02:46:23;4.3;;;2.2;;
13057;SDS011;6595;49.578;11.012;2023-11-21T02:48:24;3.3;;;1.9;;
13057;SDS011;6595;49.578;11.012;2023-11-21T02:50:23;4.0;;;2.2;;
13057;SDS011;6595;49.578;11.012;2023-11-21T02:52:23;4.0;;;2.2;;
13057;SDS011;6595;49.578;11.012;2023-11-21T02:54:24;3.8;;;2.1;;
13057;SDS011;6595;49.578;11.012;2023-11-21T02:56:23;3.8;;;2.1;;
13057;SDS011;6595;49.578;11.012;2023-11-21T02:58:24;4.2;;;2.2;;
13057;SDS011;6595;49.578;11.012;2023-11-21T03:00:24;4.2;;;2.2;;
13057;SDS011;6595;49.578;11.012;2023-11-21T03:02:23;4.3;;;2.0;;
13057;SDS011;6595;49.578;11.012;2023-11-21T03:04:23;4.7;;;2.2;;
13057;SDS011;6595;49.578;11.012;2023-11-21T03:06:24;5.5;;;2.3;;
13057;SDS011;6595;49.578;11.012;2023-11-21T03:08:23;4.7;;;2.3;;
13057;SDS011;6595;49.578;11.012;2023-11-21T03:10:23;4.7;;;2.3;;
13057;SDS011;6595;49.578;11.012;2023-11-21T03:12:24;5.6;;;2.3;;
13057;SDS011;6595;49.578;11.012;2023-11-21T03:14:23;5.2;;;2.3;;
13057;SDS011;6595;49.578;11.012;2023-11-21T03:16:24;5.2;;;2.3;;
13057;SDS011;6595;49.578;11.012;2023-11-21T03:18:24;3.6;;;2.2;;
13057;SDS011;6595;49.578;11.012;2023-11-21T03:20:23;3.6;;;2.2;;
13057;SDS011;6595;49.578;11.012;2023-11-21T03:22:24;6.9;;;2.8;;
13057;SDS011;6595;49.578;11.012;2023-11-21T03:24:24;5.2;;;2.2;;
13057;SDS011;6595;49.578;11.012;2023-11-21T03:26:23;4.8;;;2.4;;
13057;SDS011;6595;49.578;11.012;2023-11-21T03:28:23;4.4;;;2.4;;
13057;SDS011;6595;49.578;11.012;2023-11-21T03:30:24;4.4;;;2.4;;
13057;SDS011;6595;49.578;11.012;2023-11-21T03:32:23;5.2;;;2.3;;
13057;SDS011;6595;49.578;11.012;2023-11-21T03:34:24;6.4;;;2.4;;
13057;SDS011;6595;49.578;11.012;2023-11-21T03:36:24;4.8;;;2.5;;
13057;SDS011;6595;49.578;11.012;2023-11-21T03:38:23;4.0;;;2.4;;
13057;SDS011;6595;49.578;11.012;2023-11-21T03:40:24;4.0;;;2.4;;
13057;SDS011;6595;49.578;11.012;2023-11-21T03:42:23;5.0;;;2.4;;
13057;SDS011;6595;49.578;11.012;2023-11-21T03:44:23;8.5;;;2.7;;
13057;SDS011;6595;49.578;11.012;2023-11-21T03:46:24;4.5;;;2.3;;
13057;SDS011;6595;49.578;11.012;2023-11-21T03:48:23;4.5;;;2.3;;
13057;SDS011;6595;49.578;11.012;2023-11-21T03:50:23;5.9;;;2.5;;
13057;SDS011;6595;49.578;11.012;2023-11-21T03:52:24;4.5;;;2.3;;
13057;SDS011;6595;49.578;11.012;2023-11-21T03:54:23;3.7;;;2.4;;
13057;SDS011;6595;49.578;11.012;2023-11-21T03:56:23;5.3;;;2.4;;
13057;SDS011;6595;49.578;11.012;2023-11-21T03:58:24;5.3;;;2.4;;
13057;SDS011;6595;49.578;11.012;2023-11-21T04:00:23;5.3;;;2.5;;
13057;SDS011;6595;49.578;11.012;2023-11-21T04:02:24;5.3;;;2.5;;
13057;SDS011;6595;49.578;11.012;2023-11-21T04:04:24;5.0;;;2.4;;
13057;SDS011;6595;49.578;11.012;2023-11-21T04:06:23;5.5;;;2.4;;
13057;SDS011;6595;49.578;11.012;2023-11-21T04:08:23;5.5;;;2.4;;
13057;SDS011;6595;49.578;11.012;2023-11-21T04:10:24;4.9;;;2.6;;
13057;SDS011;6595;49.578;11.012;2023-11-21T04:12:23;4.9;;;2.6;;
13057;SDS011;6595;49.578;11.012;2023-11-21T04:14:23;5.2;;;2.6;;
13057;SDS011;6595;49.578;11.012;2023-11-21T04:16:23;5.1;;;2.4;;
13057;SDS011;6595;49.578;11.012;2023-11-21T04:18:23;5.1;;;2.4;;
13057;SDS011;6595;49.578;11.012;2023-11-21T04:20:24;5.1;;;2.5;;
13057;SDS011;6595;49.578;11.012;2023-11-21T04:22:23;6.0;;;2.3;;
13057;SDS011;6595;49.578;11.012;2023-11-21T04:24:23;4.0;;;2.3;;
13057;SDS011;6595;49.578;11.012;2023-11-21T04:26:24;4.0;;;2.3;;
13057;SDS011;6595;49.578;11.012;2023-11-21T04:28:23;4.6;;;2.4;;
13057;SDS011;6595;49.578;11.012;2023-11-21T04:30:23;4.2;;;2.2;;
13057;SDS011;6595;49.578;11.012;2023-11-21T04:32:23;4.2;;;2.3;;
13057;SDS011;6595;49.578;11.012;2023-11-21T04:34:23;4.2;;;2.3;;
13057;SDS011;6595;49.578;11.012;2023-11-21T04:36:23;6.8;;;2.9;;
13057;SDS011;6595;49.578;11.012;2023-11-21T04:38:24;4.7;;;2.5;;
13057;SDS011;6595;49.578;11.012;2023-11-21T04:40:23;4.0;;;2.4;;
13057;SDS011;6595;49.578;11.012;2023-11-21T04:42:23;7.4;;;2.6;;
13057;SDS011;6595;49.578;11.012;2023-11-21T04:44:23;7.4;;;2.6;;
13057;SDS011;6595;49.578;11.012;2023-11-21T04:46:23;5.2;;;2.7;;
13057;SDS011;6595;49.578;11.012;2023-11-21T04:48:23;4.8;;;2.6;;
13057;SDS011;6595;49.578;11.012;2023-11-21T04:50:23;5.5;;;2.8;;
13057;SDS011;6595;49.578;11.012;2023-11-21T04:52:23;4.5;;;2.4;;
13057;SDS011;6595;49.578;11.012;2023-11-21T04:54:24;4.5;;;2.4;;
13057;SDS011;6595;49.578;11.012;2023-11-21T04:56:23;4.4;;;2.7;;
13057;SDS011;6595;49.578;11.012;2023-11-21T04:58:23;4.9;;;2.5;;
13057;SDS011;6595;49.578;11.012;2023-11-21T05:00:24;6.0;;;2.6;;
13057;SDS011;6595;49.578;11.012;2023-11-21T05:02:23;6.0;;;2.6;;
13057;SDS011;6595;49.578;11.012;2023-11-21T05:04:23;4.6;;;2.6;;
13057;SDS011;6595;49.578;11.012;2023-11-21T05:06:23;7.2;;;2.8;;
13057;SDS011;6595;49.578;11.012;2023-11-21T05:08:24;5.1;;;2.7;;
13057;SDS011;6595;49.578;11.012;2023-11-21T05:10:23;5.1;;;2.7;;
13057;SDS011;6595;49.578;11.012;2023-11-21T05:12:23;5.6;;;2.8;;
13057;SDS011;6595;49.578;11.012;2023-11-21T05:14:24;6.5;;;2.7;;
13057;SDS011;6595;49.578;11.012;2023-11-21T05:16:25;6.2;;;2.8;;
13057;SDS011;6595;49.578;11.012;2023-11-21T05:18:23;4.0;;;2.5;;
13057;SDS011;6595;49.578;11.012;2023-11-21T05:20:24;5.0;;;2.8;;
13057;SDS011;6595;49.578;11.012;2023-11-21T05:22:23;5.0;;;2.8;;
13057;SDS011;6595;49.578;11.012;2023-11-21T05:24:23;6.9;;;3.1;;
13057;SDS011;6595;49.578;11.012;2023-11-21T05:26:24;4.5;;;2.7;;
13057;SDS011;6595;49.578;11.012;2023-11-21T05:28:23;8.2;;;3.1;;
13057;SDS011;6595;49.578;11.012;2023-11-21T05:30:23;8.2;;;3.1;;
13057;SDS011;6595;49.578;11.012;2023-11-21T05:32:24;5.2;;;3.0;;
13057;SDS011;6595;49.578;11.012;2023-11-21T05:34:23;5.2;;;3.0;;
13057;SDS011;6595;49.578;11.012;2023-11-21T05:36:23;5.1;;;3.1;;
13057;SDS011;6595;49.578;11.012;2023-11-21T05:38:24;4.6;;;3.0;;
13057;SDS011;6595;49.578;11.012;2023-11-21T05:40:23;6.1;;;2.7;;
13057;SDS011;6595;49.578;11.012;2023-11-21T05:42:23;6.5;;;2.9;;
13057;SDS011;6595;49.578;11.012;2023-11-21T05:44:24;6.5;;;2.9;;
13057;SDS011;6595;49.578;11.012;2023-11-21T05:46:23;7.3;;;3.3;;
13057;SDS011;6595;49.578;11.012;2023-11-21T05:48:23;6.4;;;3.1;;
13057;SDS011;6595;49.578;11.012;2023-11-21T05:50:24;6.0;;;3.2;;
13057;SDS011;6595;49.578;11.012;2023-11-21T05:52:23;6.0;;;3.2;;
13057;SDS011;6595;49.578;11.012;2023-11-21T05:54:23;4.8;;;3.0;;
13057;SDS011;6595;49.578;11.012;2023-11-21T05:56:24;7.8;;;3.5;;
13057;SDS011;6595;49.578;11.012;2023-11-21T05:58:23;6.4;;;3.3;;
13057;SDS011;6595;49.578;11.012;2023-11-21T06:00:23;5.3;;;3.2;;
13057;SDS011;6595;49.578;11.012;2023-11-21T06:02:23;5.3;;;3.2;;
13057;SDS011;6595;49.578;11.012;2023-11-21T06:04:24;15.8;;;8.5;;
13057;SDS011;6595;49.578;11.012;2023-11-21T06:06:24;7.0;;;3.5;;
13057;SDS011;6595;49.578;11.012;2023-11-21T06:08:23;5.6;;;3.5;;
13057;SDS011;6595;49.578;11.012;2023-11-21T06:10:24;8.7;;;3.6;;
13057;SDS011;6595;49.578;11.012;2023-11-21T06:12:23;8.7;;;3.6;;
13057;SDS011;6595;49.578;11.012;2023-11-21T06:14:23;8.0;;;3.6;;
13057;SDS011;6595;49.578;11.012;2023-11-21T06:16:24;5.9;;;3.3;;
13057;SDS011;6595;49.578;11.012;2023-11-21T06:18:23;6.7;;;3.7;;
13057;SDS011;6595;49.578;11.012;2023-11-21T06:20:23;6.7;;;3.7;;
13057;SDS011;6595;49.578;11.012;2023-11-21T06:22:24;6.3;;;3.6;;
13057;SDS011;6595;49.578;11.012;2023-11-21T06:24:23;8.1;;;3.8;;
13057;SDS011;6595;49.578;11.012;2023-11-21T06:26:23;8.3;;;3.8;;
13057;SDS011;6595;49.578;11.012;2023-11-21T06:28:24;7.9;;;4.0;;
13057;SDS011;6595;49.578;11.012;2023-11-21T06:30:23;7.9;;;4.0;;
13057;SDS011;6595;49.578;11.012;2023-11-21T06:32:23;7.1;;;4.0;;
13057;SDS011;6595;49.578;11.012;2023-11-21T06:34:24;6.6;;;3.8;;
13057;SDS011;6595;49.578;11.012;2023-11-21T06:36:23;6.3;;;3.9;;
13057;SDS011;6595;49.578;11.012;2023-11-21T06:38:23;6.3;;;3.9;;
13057;SDS011;6595;49.578;11.012;2023-11-21T06:40:24;8.8;;;4.0;;
13057;SDS011;6595;49.578;11.012;2023-11-21T06:42:23;8.8;;;4.0;;
13057;SDS011;6595;49.578;11.012;2023-11-21T06:44:23;6.3;;;3.7;;
13057;SDS011;6595;49.578;11.012;2023-11-21T06:46:24;6.3;;;3.7;;
13057;SDS011;6595;49.578;11.012;2023-11-21T06:48:24;8.2;;;3.9;;
13057;SDS011;6595;49.578;11.012;2023-11-21T06:50:23;8.8;;;4.3;;
13057;SDS011;6595;49.578;11.012;2023-11-21T06:52:24;8.8;;;4.3;;
13057;SDS011;6595;49.578;11.012;2023-11-21T06:54:23;9.4;;;4.5;;
13057;SDS011;6595;49.578;11.012;2023-11-21T06:56:23;9.1;;;4.3;;
13057;SDS011;6595;49.578;11.012;2023-11-21T06:58:24;6.2;;;3.7;;
13057;SDS011;6595;49.578;11.012;2023-11-21T07:00:23;6.2;;;3.7;;
13057;SDS011;6595;49.578;11.012;2023-11-21T07:02:23;6.2;;;3.7;;
13057;SDS011;6595;49.578;11.012;2023-11-21T07:04:23;6.7;;;3.6;;
13057;SDS011;6595;49.578;11.012;2023-11-21T07:06:24;6.7;;;3.6;;
13057;SDS011;6595;49.578;11.012;2023-11-21T07:08:23;7.8;;;3.8;;
13057;SDS011;6595;49.578;11.012;2023-11-21T07:10:23;7.8;;;3.8;;
13057;SDS011;6595;49.578;11.012;2023-11-21T07:12:23;6.9;;;3.6;;
13057;SDS011;6595;49.578;11.012;2023-11-21T07:14:23;10.1;;;4.4;;
13057;SDS011;6595;49.578;11.012;2023-11-21T07:16:24;8.3;;;4.0;;
13057;SDS011;6595;49.578;11.012;2023-11-21T07:18:23;8.3;;;4.0;;
13057;SDS011;6595;49.578;11.012;2023-11-21T07:20:23;9.7;;;4.2;;
13057;SDS011;6595;49.578;11.012;2023-11-21T07:22:24;7.5;;;4.0;;
13057;SDS011;6595;49.578;11.012;2023-11-21T07:24:23;7.5;;;4.0;;
13057;SDS011;6595;49.578;11.012;2023-11-21T07:26:23;7.5;;;4.0;;
13057;SDS011;6595;49.578;11.012;2023-11-21T07:28:24;6.5;;;4.0;;
13057;SDS011;6595;49.578;11.012;2023-11-21T07:30:23;8.0;;;4.3;;
13057;SDS011;6595;49.578;11.012;2023-11-21T07:32:23;9.0;;;4.9;;
13057;SDS011;6595;49.578;11.012;2023-11-21T07:34:24;8.9;;;5.0;;
13057;SDS011;6595;49.578;11.012;2023-11-21T07:36:23;8.9;;;5.0;;
13057;SDS011;6595;49.578;11.012;2023-11-21T07:38:24;9.1;;;4.8;;
13057;SDS011;6595;49.578;11.012;2023-11-21T07:40:23;8.8;;;4.8;;
13057;SDS011;6595;49.578;11.012;2023-11-21T07:42:23;8.2;;;5.1;;
13057;SDS011;6595;49.578;11.012;2023-11-21T07:44:24;8.3;;;4.8;;
13057;SDS011;6595;49.578;11.012;2023-11-21T07:46:23;7.5;;;4.8;;
13057;SDS011;6595;49.578;11.012;2023-11-21T07:48:23;7.5;;;4.8;;
13057;SDS011;6595;49.578;11.012;2023-11-21T07:50:24;10.8;;;5.1;;
13057;SDS011;6595;49.578;11.012;2023-11-21T07:52:23;9.0;;;4.8;;
13057;SDS011;6595;49.578;11.012;2023-11-21T07:54:23;9.0;;;4.8;;
13057;SDS011;6595;49.578;11.012;2023-11-21T07:56:23;8.5;;;4.8;;
13057;SDS011;6595;49.578;11.012;2023-11-21T07:58:23;8.5;;;4.8;;
13057;SDS011;6595;49.578;11.012;2023-11-21T08:00:23;8.2;;;4.7;;
13057;SDS011;6595;49.578;11.012;2023-11-21T08:02:24;10.1;;;4.6;;
13057;SDS011;6595;49.578;11.012;2023-11-21T08:04:23;10.1;;;4.6;;
13057;SDS011;6595;49.578;11.012;2023-11-21T08:06:23;10.1;;;5.1;;
13057;SDS011;6595;49.578;11.012;2023-11-21T08:08:23;10.9;;;5.3;;
13057;SDS011;6595;49.578;11.012;2023-11-21T08:10:24;11.5;;;5.1;;
13057;SDS011;6595;49.578;11.012;2023-11-21T08:12:23;11.5;;;5.1;;
13057;SDS011;6595;49.578;11.012;2023-11-21T08:14:23;9.9;;;5.4;;
13057;SDS011;6595;49.578;11.012;2023-11-21T08:16:24;9.9;;;5.4;;
13057;SDS011;6595;49.578;11.012;2023-11-21T08:18:23;8.4;;;5.0;;
13057;SDS011;6595;49.578;11.012;2023-11-21T08:20:23;7.0;;;4.6;;
13057;SDS011;6595;49.578;11.012;2023-11-21T08:22:23;8.4;;;4.6;;
13057;SDS011;6595;49.578;11.012;2023-11-21T08:24:23;8.4;;;4.6;;
13057;SDS011;6595;49.578;11.012;2023-11-21T08:26:24;9.6;;;4.8;;
13057;SDS011;6595;49.578;11.012;2023-11-21T08:28:24;9.6;;;4.8;;
13057;SDS011;6595;49.578;11.012;2023-11-21T08:30:23;8.7;;;4.7;;
13057;SDS011;6595;49.578;11.012;2023-11-21T08:32:24;7.9;;;4.8;;
13057;SDS011;6595;49.578;11.012;2023-11-21T08:34:24;9.4;;;5.0;;
13057;SDS011;6595;49.578;11.012;2023-11-21T08:36:23;9.4;;;5.0;;
13057;SDS011;6595;49.578;11.012;2023-11-21T08:38:24;9.7;;;5.1;;
13057;SDS011;6595;49.578;11.012;2023-11-21T08:40:23;10.5;;;5.3;;
13057;SDS011;6595;49.578;11.012;2023-11-21T08:42:23;11.5;;;5.3;;
13057;SDS011;6595;49.578;11.012;2023-11-21T08:44:24;9.0;;;5.4;;
13057;SDS011;6595;49.578;11.012;2023-11-21T08:46:23;9.0;;;5.4;;
13057;SDS011;6595;49.578;11.012;2023-11-21T08:48:23;8.6;;;5.4;;
13057;SDS011;6595;49.578;11.012;2023-11-21T08:50:23;9.9;;;5.4;;
13057;SDS011;6595;49.578;11.012;2023-11-21T08:52:24;9.3;;;5.5;;
13057;SDS011;6595;49.578;11.012;2023-11-21T08:54:23;9.3;;;5.5;;
13057;SDS011;6595;49.578;11.012;2023-11-21T08:56:23;10.5;;;5.6;;
13057;SDS011;6595;49.578;11.012;2023-11-21T08:58:24;9.0;;;5.4;;
13057;SDS011;6595;49.578;11.012;2023-11-21T09:00:23;14.5;;;5.7;;
13057;SDS011;6595;49.578;11.012;2023-11-21T09:02:23;10.8;;;5.5;;
13057;SDS011;6595;49.578;11.012;2023-11-21T09:04:24;10.8;;;5.5;;
13057;SDS011;6595;49.578;11.012;2023-11-21T09:06:23;9.8;;;5.7;;
13057;SDS011;6595;49.578;11.012;2023-11-21T09:08:23;9.8;;;5.7;;
13057;SDS011;6595;49.578;11.012;2023-11-21T09:10:24;10.5;;;5.2;;
13057;SDS011;6595;49.578;11.012;2023-11-21T09:12:23;10.5;;;5.2;;
13057;SDS011;6595;49.578;11.012;2023-11-21T09:14:23;8.0;;;4.9;;
13057;SDS011;6595;49.578;11.012;2023-11-21T09:16:24;7.6;;;4.8;;
13057;SDS011;6595;49.578;11.012;2023-11-21T09:18:23;9.8;;;5.1;;
13057;SDS011;6595;49.578;11.012;2023-11-21T09:20:23;9.3;;;5.0;;
13057;SDS011;6595;49.578;11.012;2023-11-21T09:22:23;13.1;;;5.4;;
13057;SDS011;6595;49.578;11.012;2023-11-21T09:24:23;13.1;;;5.4;;
13057;SDS011;6595;49.578;11.012;2023-11-21T09:26:24;9.0;;;5.1;;
13057;SDS011;6595;49.578;11.012;2023-11-21T09:28:23;7.9;;;5.0;;
13057;SDS011;6595;49.578;11.012;2023-11-21T09:30:23;7.9;;;5.0;;
13057;SDS011;6595;49.578;11.012;2023-11-21T09:32:24;9.4;;;5.3;;
13057;SDS011;6595;49.578;11.012;2023-11-21T09:34:24;9.4;;;5.3;;
13057;SDS011;6595;49.578;11.012;2023-11-21T09:36:25;10.1;;;5.4;;
13057;SDS011;6595;49.578;11.012;2023-11-21T09:38:23;14.3;;;5.1;;
13057;SDS011;6595;49.578;11.012;2023-11-21T09:40:23;7.8;;;4.9;;
13057;SDS011;6595;49.578;11.012;2023-11-21T09:42:25;8.8;;;5.3;;
13057;SDS011;6595;49.578;11.012;2023-11-21T09:44:25;8.8;;;5.3;;
13057;SDS011;6595;49.578;11.012;2023-11-21T09:46:23;9.2;;;5.0;;
13057;SDS011;6595;49.578;11.012;2023-11-21T09:48:23;10.1;;;5.7;;
13057;SDS011;6595;49.578;11.012;2023-11-21T09:50:24;8.5;;;5.1;;
13057;SDS011;6595;49.578;11.012;2023-11-21T09:52:25;10.7;;;5.7;;
13057;SDS011;6595;49.578;11.012;2023-11-21T09:54:23;10.7;;;5.7;;
13057;SDS011;6595;49.578;11.012;2023-11-21T09:56:23;8.0;;;4.9;;
13057;SDS011;6595;49.578;11.012;2023-11-21T09:58:24;8.9;;;5.4;;
13057;SDS011;6595;49.578;11.012;2023-11-21T10:00:24;10.2;;;5.5;;
13057;SDS011;6595;49.578;11.012;2023-11-21T10:02:24;10.9;;;5.7;;
13057;SDS011;6595;49.578;11.012;2023-11-21T10:04:23;10.9;;;5.7;;
13057;SDS011;6595;49.578;11.012;2023-11-21T10:06:23;9.7;;;5.9;;
13057;SDS011;6595;49.578;11.012;2023-11-21T10:08:24;9.7;;;5.9;;
13057;SDS011;6595;49.578;11.012;2023-11-21T10:10:23;9.8;;;5.4;;
13057;SDS011;6595;49.578;11.012;2023-11-21T10:12:23;9.8;;;5.4;;
13057;SDS011;6595;49.578;11.012;2023-11-21T10:14:24;9.2;;;5.2;;
13057;SDS011;6595;49.578;11.012;2023-11-21T10:16:24;9.4;;;5.1;;
13057;SDS011;6595;49.578;11.012;2023-11-21T10:18:23;9.4;;;5.1;;
13057;SDS011;6595;49.578;11.012;2023-11-21T10:20:23;8.9;;;5.1;;
13057;SDS011;6595;49.578;11.012;2023-11-21T10:22:23;8.9;;;5.1;;
13057;SDS011;6595;49.578;11.012;2023-11-21T10:24:23;8.0;;;4.8;;
13057;SDS011;6595;49.578;11.012;2023-11-21T10:26:24;9.0;;;5.1;;
13057;SDS011;6595;49.578;11.012;2023-11-21T10:28:23;9.0;;;5.1;;
13057;SDS011;6595;49.578;11.012;2023-11-21T10:30:24;8.4;;;4.7;;
13057;SDS011;6595;49.578;11.012;2023-11-21T10:32:27;8.4;;;4.7;;
13057;SDS011;6595;49.578;11.012;2023-11-21T10:34:24;9.1;;;4.9;;
13057;SDS011;6595;49.578;11.012;2023-11-21T10:36:25;6.5;;;4.4;;
13057;SDS011;6595;49.578;11.012;2023-11-21T10:38:23;6.5;;;4.4;;
13057;SDS011;6595;49.578;11.012;2023-11-21T10:40:24;7.2;;;4.4;;
13057;SDS011;6595;49.578;11.012;2023-11-21T10:42:24;7.2;;;4.4;;
13057;SDS011;6595;49.578;11.012;2023-11-21T10:44:23;6.4;;;4.6;;
13057;SDS011;6595;49.578;11.012;2023-11-21T10:46:23;6.9;;;4.4;;
13057;SDS011;6595;49.578;11.012;2023-11-21T10:48:24;6.9;;;4.4;;
13057;SDS011;6595;49.578;11.012;2023-11-21T10:50:23;7.2;;;4.9;;
13057;SDS011;6595;49.578;11.012;2023-11-21T10:52:25;7.0;;;4.7;;
13057;SDS011;6595;49.578;11.012;2023-11-21T10:54:24;6.3;;;4.9;;
13057;SDS011;6595;49.578;11.012;2023-11-21T10:56:23;7.3;;;4.9;;
13057;SDS011;6595;49.578;11.012;2023-11-21T10:58:23;7.3;;;4.9;;
13057;SDS011;6595;49.578;11.012;2023-11-21T11:00:23;8.0;;;4.9;;
13057;SDS011;6595;49.578;11.012;2023-11-21T11:02:23;9.2;;;5.1;;
13057;SDS011;6595;49.578;11.012;2023-11-21T11:04:23;5.6;;;4.1;;
13057;SDS011;6595;49.578;11.012;2023-11-21T11:06:24;5.6;;;4.2;;
13057;SDS011;6595;49.578;11.012;2023-11-21T11:08:23;5.6;;;4.2;;
13057;SDS011;6595;49.578;11.012;2023-11-21T11:10:24;6.9;;;4.3;;
13057;SDS011;6595;49.578;11.012;2023-11-21T11:12:23;5.6;;;3.6;;
13057;SDS011;6595;49.578;11.012;2023-11-21T11:14:23;6.5;;;4.0;;
13057;SDS011;6595;49.578;11.012;2023-11-21T11:16:24;6.5;;;4.0;;
13057;SDS011;6595;49.578;11.012;2023-11-21T11:18:24;7.2;;;4.3;;
13057;SDS011;6595;49.578;11.012;2023-11-21T11:20:24;7.2;;;4.3;;
13057;SDS011;6595;49.578;11.012;2023-11-21T11:22:26;7.2;;;5.2;;
13057;SDS011;6595;49.578;11.012;2023-11-21T11:24:31;7.6;;;4.8;;
13057;SDS011;6595;49.578;11.012;2023-11-21T11:26:26;7.6;;;4.8;;
13057;SDS011;6595;49.578;11.012;2023-11-21T11:28:27;7.5;;;5.3;;
13057;SDS011;6595;49.578;11.012;2023-11-21T11:30:27;8.8;;;5.2;;
13057;SDS011;6595;49.578;11.012;2023-11-21T11:32:24;7.9;;;5.1;;
13057;SDS011;6595;49.578;11.012;2023-11-21T11:34:26;7.9;;;5.1;;
13057;SDS011;6595;49.578;11.012;2023-11-21T11:36:25;6.4;;;4.6;;
13057;SDS011;6595;49.578;11.012;2023-11-21T11:38:23;6.4;;;4.6;;
13057;SDS011;6595;49.578;11.012;2023-11-21T11:40:25;8.2;;;5.4;;
13057;SDS011;6595;49.578;11.012;2023-11-21T11:42:24;7.5;;;5.0;;
13057;SDS011;6595;49.578;11.012;2023-11-21T11:48:23;8.8;;;4.7;;
13057;SDS011;6595;49.578;11.012;2023-11-21T11:50:23;7.3;;;4.5;;
13057;SDS011;6595;49.578;11.012;2023-11-21T11:56:25;8.2;;;5.1;;
13057;SDS011;6595;49.578;11.012;2023-11-21T11:58:24;8.2;;;5.0;;
13057;SDS011;6595;49.578;11.012;2023-11-21T12:00:33;10.6;;;5.6;;
13057;SDS011;6595;49.578;11.012;2023-11-21T12:02:23;7.2;;;5.1;;
13057;SDS011;6595;49.578;11.012;2023-11-21T12:04:23;7.2;;;5.1;;
13057;SDS011;6595;49.578;11.012;2023-11-21T12:06:30;8.1;;;5.1;;
13057;SDS011;6595;49.578;11.012;2023-11-21T12:08:23;8.1;;;5.1;;
13057;SDS011;6595;49.578;11.012;2023-11-21T12:10:24;8.8;;;5.3;;
13057;SDS011;6595;49.578;11.012;2023-11-21T12:12:25;8.7;;;5.1;;
13057;SDS011;6595;49.578;11.012;2023-11-21T12:14:23;8.7;;;5.1;;
13057;SDS011;6595;49.578;11.012;2023-11-21T12:16:23;8.3;;;5.1;;
13057;SDS011;6595;49.578;11.012;2023-11-21T12:18:24;8.3;;;5.1;;
13057;SDS011;6595;49.578;11.012;2023-11-21T12:20:24;8.1;;;4.8;;
13057;SDS011;6595;49.578;11.012;2023-11-21T12:22:24;7.3;;;4.3;;
13057;SDS011;6595;49.578;11.012;2023-11-21T12:24:24;7.8;;;4.8;;
13057;SDS011;6595;49.578;11.012;2023-11-21T12:26:23;7.8;;;4.8;;
13057;SDS011;6595;49.578;11.012;2023-11-21T12:28:23;7.7;;;4.3;;
13057;SDS011;6595;49.578;11.012;2023-11-21T12:30:24;7.7;;;4.4;;
13057;SDS011;6595;49.578;11.012;2023-11-21T12:32:23;8.1;;;4.4;;